Terminal Aerodrome Forecast
Issued by NWS

Home | Current Version | Previous Version | Text Only | Print | Product List | Glossary On
Versions: 1 2 3 4 5 6 7 8 9 10 11 12 13 14 15 16 17 18 19 20 21 22 23 24 25 26 27 28 29 30 31 32 33 34 35 36 37 38 39 40 41 42 43 44 45 46 47 48 49 50
277
FTUS42 KGSP 230530 CCA
TAFHKY
TAF COR
KHKY 230530Z 2306/2406 07011G19KT 3SM SHRA BR BKN005 OVC012
      TEMPO 2306/2309 VRB10G20KT 4SM TSRA OVC003CB
     FM230900 16006KT 4SM -SHRA BR VCTS OVC008CB
     FM231100 17006KT 3SM BR OVC003
     FM231500 VRB02KT 4SM BR OVC008
     FM231700 29005KT P6SM VCSH OVC015 PROB30 2317/2323 2SM -SHRA
      OVC007
     FM240300 29009KT P6SM BKN035=

USA.gov is the U.S. government's official web portal to all federal, state and local government web resources and services.